Fairplay, Kentucky
Current Conditions -  °F | °C
As of 11:56 AM on Friday 21 Nov 2014 (Local Time) from KEKQ Reporting Station
Clear Clear  
Wind Chill: 40°   Ceiling: Unl
Heat Index: 43°   Visibility: 10mi
Dew Point: 16°   Wind: 5mph
Humidity: 34%   Direction: 120°ESE
Pressure: 30.48"   Gusts: NA
Location:  37.05°N, 85.3°W
Report Text: KEKQ 211756Z AUTO 12004KT 10SM CLR 06/M09 A3048 RMK AO2 58007 T00611088 10061 21088 SLP333
Loading
Personal Weather Stations






























Interactive Weather Map New forecast layout! Learn more

10-Day Weather Forecast

Advertisements
Track Severe Weather on mobile